Terminal Aerodrome Forecast
Issued by NWS North Platte, NE

Home | Current Version | Previous Version | Text Only | Print | Product List | Glossary On
Versions: 1 2 3 4 5 6 7 8 9 10 11 12 13 14 15 16 17 18 19 20 21 22 23 24 25
674
FTUS43 KLBF 231130 CCA
TAFLBF
TAF COR
KLBF 231130Z 2312/2412 12004KT 4SM BR FEW060
     FM231400 14005KT P6SM FEW060
     FM231700 17012G18KT P6SM SCT060
     FM240100 14009KT P6SM SCT150
     FM240500 12006KT P6SM BKN100
     FM240700 34010KT P6SM -SHRA OVC050=

USA.gov is the U.S. government's official web portal to all federal, state and local government web resources and services.